createdAt,value
2023-03-08T00:02:19.652Z,8.70
2023-03-08T00:04:45.913Z,7.73
2023-03-08T00:07:12.774Z,8.03
2023-03-08T00:09:39.059Z,7.87
2023-03-08T00:12:06.488Z,7.40
2023-03-08T00:14:32.688Z,6.87
2023-03-08T00:16:58.891Z,7.90
2023-03-08T00:19:25.210Z,7.43
2023-03-08T00:21:51.457Z,6.57
2023-03-08T00:24:19.069Z,7.00
2023-03-08T00:26:45.344Z,5.97
2023-03-08T00:29:11.648Z,6.23
2023-03-08T00:31:38.016Z,6.00
2023-03-08T00:34:04.291Z,5.40
2023-03-08T00:36:30.478Z,5.43
2023-03-08T00:38:56.766Z,5.03
2023-03-08T00:41:23.747Z,5.50
2023-03-08T00:43:49.992Z,5.63
2023-03-08T00:46:16.338Z,5.70
2023-03-08T00:48:42.610Z,5.67
2023-03-08T00:51:11.858Z,5.30
2023-03-08T00:53:38.034Z,5.00
2023-03-08T00:56:04.830Z,5.30
2023-03-08T00:58:31.945Z,5.47
2023-03-08T01:00:58.636Z,5.53
2023-03-08T01:03:25.371Z,5.53
2023-03-08T01:05:52.875Z,5.60
2023-03-08T01:08:19.832Z,5.27
2023-03-08T01:10:50.260Z,5.43
2023-03-08T01:13:16.620Z,5.97
2023-03-08T01:15:43.688Z,6.17
2023-03-08T01:18:10.152Z,6.43
2023-03-08T01:20:36.398Z,6.40
2023-03-08T01:23:02.854Z,6.60
2023-03-08T01:25:29.222Z,6.90
2023-03-08T01:27:55.434Z,6.63
2023-03-08T01:30:22.028Z,5.67
2023-03-08T01:32:49.074Z,6.37
2023-03-08T01:35:15.509Z,6.47
2023-03-08T01:37:41.754Z,6.30
2023-03-08T01:40:11.526Z,6.50
2023-03-08T01:42:38.139Z,6.87
2023-03-08T01:45:06.512Z,7.10
2023-03-08T01:47:35.247Z,7.43
2023-03-08T01:50:06.041Z,7.70
2023-03-08T01:52:34.864Z,7.40
2023-03-08T01:55:02.730Z,7.57
2023-03-08T01:57:32.195Z,7.83
2023-03-08T02:00:01.746Z,7.97
2023-03-08T02:02:31.203Z,7.63
2023-03-08T02:04:57.377Z,7.80
2023-03-08T02:07:24.154Z,7.83
2023-03-08T02:09:50.437Z,7.30
2023-03-08T02:12:16.738Z,7.70
2023-03-08T02:14:43.938Z,7.70
2023-03-08T02:17:10.431Z,7.97
2023-03-08T02:19:43.124Z,7.43
2023-03-08T02:22:10.276Z,8.20
2023-03-08T02:24:37.137Z,8.13
2023-03-08T02:27:07.456Z,7.77
2023-03-08T02:29:33.843Z,7.37
2023-03-08T02:32:00.143Z,8.33
2023-03-08T02:34:26.396Z,8.07
2023-03-08T02:36:52.678Z,8.00
2023-03-08T02:39:18.888Z,8.63
2023-03-08T02:41:45.744Z,8.17
2023-03-08T02:44:11.935Z,7.97
2023-03-08T02:46:38.084Z,7.47
2023-03-08T02:49:04.554Z,6.83
2023-03-08T02:51:31.024Z,6.90
2023-03-08T02:53:57.354Z,6.97
2023-03-08T02:56:24.034Z,7.23
2023-03-08T02:58:50.878Z,7.03
2023-03-08T03:01:17.154Z,7.47
2023-03-08T03:03:43.574Z,8.23
2023-03-08T03:06:14.727Z,7.07
2023-03-08T03:08:41.046Z,7.03
2023-03-08T03:11:11.576Z,7.43
2023-03-08T03:13:37.828Z,8.37
2023-03-08T03:16:07.431Z,8.20
2023-03-08T03:18:33.667Z,8.97
2023-03-08T03:21:03.188Z,9.10
2023-03-08T03:23:29.600Z,9.03
2023-03-08T03:25:55.823Z,9.20
2023-03-08T03:28:22.051Z,9.27
2023-03-08T03:30:54.781Z,9.57
2023-03-08T03:33:21.746Z,10.67
2023-03-08T03:35:47.939Z,10.30
2023-03-08T03:38:14.133Z,10.23
2023-03-08T03:40:40.362Z,10.83
2023-03-08T03:43:06.573Z,10.77
2023-03-08T03:45:32.782Z,10.87
2023-03-08T03:47:59.011Z,11.27
2023-03-08T03:50:25.880Z,11.23
2023-03-08T03:52:52.220Z,12.20
2023-03-08T03:55:18.404Z,12.13
2023-03-08T03:57:44.584Z,12.13
2023-03-08T04:00:11.938Z,13.33
2023-03-08T04:02:38.153Z,13.60
2023-03-08T04:05:05.134Z,14.40
2023-03-08T04:07:32.499Z,15.17
2023-03-08T04:09:59.152Z,14.47
2023-03-08T04:12:25.460Z,15.73
2023-03-08T04:14:52.799Z,16.17
2023-03-08T04:17:19.077Z,15.30
2023-03-08T04:19:45.279Z,14.47
2023-03-08T04:22:11.715Z,14.80
2023-03-08T04:24:38.497Z,14.57
2023-03-08T04:27:04.705Z,14.30
2023-03-08T04:29:30.993Z,14.73
2023-03-08T04:31:59.379Z,14.30
2023-03-08T04:34:27.480Z,14.50
2023-03-08T04:36:53.675Z,15.07
2023-03-08T04:39:20.036Z,15.80
2023-03-08T04:41:47.103Z,14.80
2023-03-08T04:44:13.413Z,14.67
2023-03-08T04:46:39.681Z,14.00
2023-03-08T04:49:06.059Z,13.97
2023-03-08T04:51:32.345Z,14.57
2023-03-08T04:53:58.652Z,14.20
2023-03-08T04:56:25.026Z,13.90
2023-03-08T04:58:51.891Z,14.27
2023-03-08T05:01:19.717Z,13.83
2023-03-08T05:03:48.754Z,13.93
2023-03-08T05:06:15.114Z,13.83
2023-03-08T05:08:41.475Z,13.60
2023-03-08T05:11:08.101Z,12.80
2023-03-08T05:13:36.118Z,13.67
2023-03-08T05:16:04.377Z,13.27
2023-03-08T05:18:30.636Z,13.13
2023-03-08T05:20:58.164Z,13.13
2023-03-08T05:23:28.129Z,13.80
2023-03-08T05:25:55.931Z,12.60
2023-03-08T05:28:22.625Z,13.83
2023-03-08T05:30:49.147Z,13.83
2023-03-08T05:33:16.856Z,13.47
2023-03-08T05:35:43.048Z,12.13
2023-03-08T05:38:09.306Z,13.20
2023-03-08T05:40:37.266Z,12.40
2023-03-08T05:43:03.478Z,12.87
2023-03-08T05:45:29.804Z,11.73
2023-03-08T05:47:56.036Z,11.57
2023-03-08T05:50:22.992Z,11.07
2023-03-08T05:52:49.227Z,9.87
2023-03-08T05:55:15.513Z,10.10
2023-03-08T05:57:41.782Z,11.30
2023-03-08T06:00:09.360Z,11.77
2023-03-08T06:02:35.642Z,10.33
2023-03-08T06:05:01.784Z,10.87
2023-03-08T06:07:28.599Z,11.17
2023-03-08T06:09:55.460Z,11.00
2023-03-08T06:12:21.762Z,10.40
2023-03-08T06:14:48.037Z,8.50
2023-03-08T06:17:14.527Z,9.50
2023-03-08T06:19:40.827Z,10.67
2023-03-08T06:22:07.129Z,9.87
2023-03-08T06:24:33.965Z,8.57
2023-03-08T06:27:00.389Z,9.27
2023-03-08T06:29:26.539Z,8.70
2023-03-08T06:31:52.697Z,8.67
2023-03-08T06:34:19.321Z,8.10
2023-03-08T06:36:45.543Z,8.37
2023-03-08T06:39:11.725Z,8.07
2023-03-08T06:41:39.061Z,7.60
2023-03-08T06:44:05.411Z,6.50
2023-03-08T06:46:31.803Z,6.70
2023-03-08T06:48:59.884Z,6.90
2023-03-08T06:51:26.179Z,7.83
2023-03-08T06:53:52.347Z,8.53
2023-03-08T06:56:18.563Z,7.63
2023-03-08T06:58:45.454Z,8.40
2023-03-08T07:01:12.645Z,9.07
2023-03-08T07:03:39.064Z,8.67
2023-03-08T07:06:06.802Z,8.23
2023-03-08T07:08:33.347Z,8.90
2023-03-08T07:11:00.189Z,6.67
2023-03-08T07:13:26.574Z,7.87
2023-03-08T07:15:53.522Z,8.33
2023-03-08T07:18:19.981Z,8.33
2023-03-08T07:20:51.525Z,8.80
2023-03-08T07:23:17.714Z,8.17
2023-03-08T07:25:44.036Z,9.93
2023-03-08T07:28:10.248Z,8.70
2023-03-08T07:30:36.373Z,9.00
2023-03-08T07:33:03.386Z,14.43
2023-03-08T07:35:29.661Z,13.83
2023-03-08T07:37:55.964Z,9.93
2023-03-08T07:40:22.359Z,8.77
2023-03-08T07:42:48.751Z,8.27
2023-03-08T07:45:15.277Z,8.00
2023-03-08T07:47:41.540Z,7.83
2023-03-08T07:50:10.105Z,7.40
2023-03-08T07:52:36.486Z,6.77
2023-03-08T07:55:03.039Z,7.30
2023-03-08T07:57:29.341Z,6.47
2023-03-08T07:59:55.577Z,6.03
2023-03-08T08:02:21.793Z,6.50
2023-03-08T08:04:48.153Z,6.13
2023-03-08T08:07:15.978Z,6.70
2023-03-08T08:09:42.408Z,5.87
2023-03-08T08:12:08.925Z,6.33
2023-03-08T08:14:35.162Z,6.80
2023-03-08T08:17:01.345Z,6.63
2023-03-08T08:19:27.987Z,6.50
2023-03-08T08:21:54.264Z,6.20
2023-03-08T08:24:21.091Z,6.40
2023-03-08T08:26:47.325Z,6.53
2023-03-08T08:29:13.679Z,7.47
2023-03-08T08:31:40.823Z,7.27
2023-03-08T08:34:07.250Z,7.43
2023-03-08T08:36:33.432Z,7.40
2023-03-08T08:38:59.640Z,6.90
2023-03-08T08:41:29.008Z,7.97
2023-03-08T08:43:58.178Z,6.70
2023-03-08T08:46:24.761Z,7.57
2023-03-08T08:48:50.935Z,6.83
2023-03-08T08:51:17.066Z,7.27
2023-03-08T08:53:43.682Z,7.77
2023-03-08T08:56:20.329Z,7.87
2023-03-08T08:58:52.905Z,6.97
2023-03-08T09:01:20.847Z,7.87
2023-03-08T09:03:47.404Z,7.40
2023-03-08T09:06:14.404Z,8.17
2023-03-08T09:08:40.988Z,7.80
2023-03-08T09:11:09.052Z,8.10
2023-03-08T09:13:37.447Z,7.30
2023-03-08T09:16:04.611Z,7.50
2023-03-08T09:18:30.898Z,7.47
2023-03-08T09:20:57.088Z,7.83
2023-03-08T09:23:23.244Z,8.20
2023-03-08T09:25:56.744Z,7.23
2023-03-08T09:28:23.240Z,8.73
2023-03-08T09:30:49.440Z,7.47
2023-03-08T09:33:16.695Z,7.93
2023-03-08T09:35:42.909Z,8.00
2023-03-08T09:38:09.186Z,8.10
2023-03-08T09:40:39.767Z,8.20
2023-03-08T09:43:07.558Z,8.60
2023-03-08T09:45:34.585Z,8.43
2023-03-08T09:48:06.907Z,7.97
2023-03-08T09:50:38.603Z,7.37
2023-03-08T09:53:10.894Z,8.57
2023-03-08T09:55:44.601Z,8.00
2023-03-08T09:58:16.395Z,7.17
2023-03-08T10:00:43.867Z,7.17
2023-03-08T10:03:46.214Z,7.63
2023-03-08T10:06:16.509Z,7.33
2023-03-08T10:08:48.979Z,7.27
2023-03-08T10:11:18.211Z,6.83
2023-03-08T10:13:47.515Z,7.50
2023-03-08T10:16:18.917Z,7.23
2023-03-08T10:18:48.524Z,7.73
2023-03-08T10:21:17.458Z,7.17
2023-03-08T10:23:45.433Z,7.67
2023-03-08T10:26:13.118Z,7.97
2023-03-08T10:28:39.486Z,7.50
2023-03-08T10:31:23.730Z,7.33
2023-03-08T10:33:55.847Z,7.00
2023-03-08T10:36:24.741Z,7.53
2023-03-08T10:39:05.606Z,7.17
2023-03-08T10:41:36.816Z,7.53
2023-03-08T10:44:03.223Z,7.20
2023-03-08T10:46:31.271Z,7.47
2023-03-08T10:49:08.090Z,8.00
2023-03-08T10:51:35.346Z,7.70
2023-03-08T10:54:03.421Z,7.50
2023-03-08T10:56:34.381Z,8.53
2023-03-08T10:59:00.725Z,8.37
2023-03-08T11:01:29.438Z,9.03
2023-03-08T11:04:00.820Z,8.97
2023-03-08T11:06:27.464Z,8.57
2023-03-08T11:08:55.983Z,8.10
2023-03-08T11:11:22.435Z,8.10
2023-03-08T11:13:50.025Z,7.57
2023-03-08T11:16:28.464Z,7.63
2023-03-08T11:19:02.582Z,7.97
2023-03-08T11:21:33.020Z,8.33
2023-03-08T11:24:10.013Z,8.23
2023-03-08T11:26:42.418Z,8.67
2023-03-08T11:29:26.647Z,8.67
2023-03-08T11:31:58.274Z,8.67
2023-03-08T11:34:45.681Z,9.40
2023-03-08T11:37:16.873Z,8.23
2023-03-08T11:39:46.575Z,8.67
2023-03-08T11:42:21.406Z,8.30
2023-03-08T11:45:08.496Z,7.53
2023-03-08T11:47:55.909Z,8.10
2023-03-08T11:50:23.261Z,7.80
2023-03-08T11:53:05.853Z,8.23
2023-03-08T11:55:42.299Z,8.23
2023-03-08T11:58:12.016Z,8.27
2023-03-08T12:00:40.013Z,8.57
2023-03-08T12:03:11.370Z,8.07
2023-03-08T12:05:40.812Z,7.27
2023-03-08T12:08:13.506Z,7.63
2023-03-08T12:10:44.358Z,8.10
2023-03-08T12:13:16.681Z,7.57
2023-03-08T12:15:46.518Z,7.80
2023-03-08T12:18:16.108Z,7.03
2023-03-08T12:20:43.898Z,7.90
2023-03-08T12:23:18.156Z,7.40
2023-03-08T12:25:48.382Z,7.10
2023-03-08T12:28:17.495Z,7.03
2023-03-08T12:30:54.272Z,7.70
2023-03-08T12:33:20.907Z,7.13
2023-03-08T12:35:52.704Z,7.83
2023-03-08T12:38:33.225Z,7.57
2023-03-08T12:41:00.344Z,7.40
2023-03-08T12:43:31.744Z,7.73
2023-03-08T12:46:03.942Z,7.57
2023-03-08T12:48:31.735Z,7.70
2023-03-08T12:51:01.720Z,7.43
2023-03-08T12:53:35.093Z,7.80
2023-03-08T12:56:05.787Z,7.43
2023-03-08T12:58:33.555Z,7.57
2023-03-08T13:01:03.059Z,7.80
2023-03-08T13:03:36.822Z,7.80
2023-03-08T13:06:15.419Z,7.80
2023-03-08T13:08:46.880Z,6.33
2023-03-08T13:11:14.432Z,6.77
2023-03-08T13:13:49.186Z,7.53
2023-03-08T13:16:37.354Z,7.80
2023-03-08T13:19:24.381Z,8.00
2023-03-08T13:21:55.725Z,7.47
2023-03-08T13:24:43.182Z,7.47
2023-03-08T13:27:25.684Z,7.07
2023-03-08T13:29:54.055Z,7.43
2023-03-08T13:32:21.648Z,7.47
2023-03-08T13:34:58.208Z,7.27
2023-03-08T13:37:26.040Z,6.50
2023-03-08T13:39:53.491Z,7.77
2023-03-08T13:42:23.968Z,7.53
2023-03-08T13:44:51.458Z,6.97
2023-03-08T13:47:22.651Z,6.67
2023-03-08T13:49:51.743Z,6.50
2023-03-08T13:52:19.886Z,6.77
2023-03-08T13:54:49.148Z,7.57
2023-03-08T13:57:19.838Z,8.73
2023-03-08T13:59:48.141Z,9.17
2023-03-08T14:02:20.327Z,9.47
2023-03-08T14:04:46.822Z,9.17
2023-03-08T14:07:20.003Z,8.60
2023-03-08T14:09:46.205Z,9.33
2023-03-08T14:12:15.462Z,8.87
2023-03-08T14:14:43.773Z,8.50
2023-03-08T14:17:17.995Z,8.77
2023-03-08T14:19:44.179Z,8.53
2023-03-08T14:22:13.174Z,9.10
2023-03-08T14:24:40.814Z,8.87
2023-03-08T14:27:36.354Z,8.97
2023-03-08T14:30:08.486Z,8.80
2023-03-08T14:32:37.607Z,8.77
2023-03-08T14:35:06.614Z,8.53
2023-03-08T14:37:34.620Z,9.73
2023-03-08T14:40:19.161Z,9.87
2023-03-08T14:42:47.237Z,10.10
2023-03-08T14:45:21.199Z,9.83
2023-03-08T14:47:50.263Z,10.23
2023-03-08T14:50:23.010Z,9.47
2023-03-08T14:52:51.580Z,9.63
2023-03-08T14:55:22.849Z,10.13
2023-03-08T14:57:50.306Z,11.43
2023-03-08T15:00:17.478Z,10.07
2023-03-08T15:02:44.016Z,9.60
2023-03-08T15:05:25.522Z,10.40
2023-03-08T15:07:55.014Z,10.17
2023-03-08T15:10:26.053Z,10.50
2023-03-08T15:12:52.742Z,9.87
2023-03-08T15:15:19.283Z,9.73
2023-03-08T15:17:45.540Z,10.43
2023-03-08T15:20:12.564Z,10.03
2023-03-08T15:22:42.344Z,10.33
2023-03-08T15:25:13.585Z,9.80
2023-03-08T15:27:39.792Z,9.67
2023-03-08T15:30:13.105Z,9.37
2023-03-08T15:32:39.338Z,9.87
2023-03-08T15:35:05.995Z,10.33
2023-03-08T15:37:32.275Z,11.23
2023-03-08T15:39:59.259Z,11.93
2023-03-08T15:42:25.524Z,12.03
2023-03-08T15:44:51.711Z,11.90
2023-03-08T15:47:17.978Z,12.73
2023-03-08T15:49:44.230Z,13.30
2023-03-08T15:52:10.955Z,13.73
2023-03-08T15:54:39.454Z,13.80
2023-03-08T15:57:06.320Z,13.77
2023-03-08T15:59:32.459Z,14.50
2023-03-08T16:01:58.702Z,13.70
2023-03-08T16:04:25.008Z,14.27
2023-03-08T16:06:51.229Z,14.70
2023-03-08T16:09:17.407Z,14.30
2023-03-08T16:11:43.622Z,13.80
2023-03-08T16:14:10.403Z,14.83
2023-03-08T16:16:45.295Z,14.60
2023-03-08T16:19:12.483Z,14.80
2023-03-08T16:21:38.705Z,14.77
2023-03-08T16:24:05.410Z,14.90
2023-03-08T16:26:31.587Z,14.10
2023-03-08T16:28:57.771Z,14.57
2023-03-08T16:31:24.736Z,14.43
2023-03-08T16:33:50.888Z,14.53
2023-03-08T16:36:17.084Z,14.63
2023-03-08T16:38:43.379Z,15.17
2023-03-08T16:41:13.064Z,14.83
2023-03-08T16:43:46.818Z,16.00
2023-03-08T16:46:15.011Z,15.03
2023-03-08T16:48:41.996Z,14.33
2023-03-08T16:51:13.209Z,14.07
2023-03-08T16:53:39.511Z,14.67
2023-03-08T16:56:06.323Z,14.93
2023-03-08T16:58:32.502Z,15.17
2023-03-08T17:00:58.759Z,14.43
2023-03-08T17:03:25.008Z,15.83
2023-03-08T17:05:51.966Z,15.57
2023-03-08T17:08:18.260Z,15.37
2023-03-08T17:10:44.986Z,14.83
2023-03-08T17:13:11.767Z,17.27
2023-03-08T17:15:39.251Z,17.73
2023-03-08T17:18:06.043Z,17.57
2023-03-08T17:20:32.207Z,16.93
2023-03-08T17:22:59.181Z,17.70
2023-03-08T17:25:25.583Z,17.40
2023-03-08T17:27:51.817Z,17.13
2023-03-08T17:30:19.020Z,17.83
2023-03-08T17:32:45.224Z,17.97
2023-03-08T17:35:11.610Z,18.63
2023-03-08T17:37:40.918Z,18.27
2023-03-08T17:40:10.118Z,19.03
2023-03-08T17:42:36.456Z,17.83
2023-03-08T17:45:05.522Z,19.77
2023-03-08T17:47:33.442Z,19.87
2023-03-08T17:49:59.598Z,20.57
2023-03-08T17:52:25.803Z,21.90
2023-03-08T17:54:53.649Z,23.00
2023-03-08T17:57:21.133Z,19.90
2023-03-08T17:59:47.575Z,21.90
2023-03-08T18:02:13.760Z,21.17
2023-03-08T18:04:42.371Z,20.77
2023-03-08T18:07:08.630Z,19.60
2023-03-08T18:09:34.851Z,19.47
2023-03-08T18:12:01.010Z,17.33
2023-03-08T18:14:39.290Z,21.77
2023-03-08T18:17:06.441Z,23.70
2023-03-08T18:19:32.671Z,22.33
2023-03-08T18:21:59.213Z,24.83
2023-03-08T18:24:26.756Z,19.90
2023-03-08T18:26:53.269Z,17.83
2023-03-08T18:29:20.124Z,17.07
2023-03-08T18:31:47.264Z,19.03
2023-03-08T18:34:13.457Z,19.07
2023-03-08T18:36:40.743Z,18.43
2023-03-08T18:39:11.575Z,20.93
2023-03-08T18:41:38.381Z,16.63
2023-03-08T18:44:04.875Z,20.27
2023-03-08T18:46:32.171Z,18.77
2023-03-08T18:49:00.657Z,19.77
2023-03-08T18:51:27.128Z,21.33
2023-03-08T18:53:54.263Z,17.20
2023-03-08T18:56:21.525Z,16.13
2023-03-08T18:58:47.833Z,14.93
2023-03-08T19:01:16.185Z,16.37
2023-03-08T19:03:43.090Z,16.10
2023-03-08T19:06:10.791Z,16.23
2023-03-08T19:08:37.218Z,16.67
2023-03-08T19:11:09.870Z,16.77
2023-03-08T19:13:36.033Z,16.67
2023-03-08T19:16:02.274Z,16.13
2023-03-08T19:18:28.669Z,17.30
2023-03-08T19:20:54.864Z,17.90
2023-03-08T19:23:21.715Z,20.70
2023-03-08T19:26:06.079Z,19.17
2023-03-08T19:28:32.382Z,19.87
2023-03-08T19:30:58.578Z,18.53
2023-03-08T19:33:30.867Z,18.37
2023-03-08T19:35:57.719Z,19.20
2023-03-08T19:38:24.567Z,18.17
2023-03-08T19:40:50.935Z,18.03
2023-03-08T19:43:17.099Z,18.23
2023-03-08T19:45:47.811Z,17.80
2023-03-08T19:48:14.242Z,18.17
2023-03-08T19:50:44.236Z,17.37
2023-03-08T19:53:10.431Z,17.83
2023-03-08T19:55:37.466Z,17.87
2023-03-08T19:58:05.556Z,17.23
2023-03-08T20:00:31.753Z,17.77
2023-03-08T20:02:58.683Z,16.27
2023-03-08T20:05:25.061Z,16.67
2023-03-08T20:07:51.513Z,16.40
2023-03-08T20:10:18.500Z,16.47
2023-03-08T20:12:46.316Z,16.87
2023-03-08T20:15:12.539Z,17.43
2023-03-08T20:17:38.783Z,17.57
2023-03-08T20:20:06.237Z,17.07
2023-03-08T20:22:32.574Z,18.03
2023-03-08T20:24:58.784Z,18.13
2023-03-08T20:27:25.000Z,18.10
2023-03-08T20:29:52.352Z,17.37
2023-03-08T20:32:18.665Z,17.20
2023-03-08T20:34:44.843Z,17.33
2023-03-08T20:37:10.990Z,18.53
2023-03-08T20:39:37.168Z,17.50
2023-03-08T20:42:03.498Z,17.97
2023-03-08T20:44:29.615Z,18.43
2023-03-08T20:46:56.501Z,19.57
2023-03-08T20:49:23.454Z,19.67
2023-03-08T20:51:49.621Z,18.80
2023-03-08T20:54:17.064Z,18.37
2023-03-08T20:56:43.277Z,17.77
2023-03-08T20:59:10.494Z,18.83
2023-03-08T21:01:37.011Z,19.07
2023-03-08T21:04:05.809Z,19.10
2023-03-08T21:06:32.134Z,18.50
2023-03-08T21:08:59.152Z,18.20
2023-03-08T21:11:25.363Z,20.27
2023-03-08T21:13:51.970Z,19.00
2023-03-08T21:16:20.508Z,20.03
2023-03-08T21:18:48.844Z,20.77
2023-03-08T21:21:20.836Z,19.80
2023-03-08T21:23:48.275Z,21.17
2023-03-08T21:26:14.500Z,20.20
2023-03-08T21:28:40.728Z,22.33
2023-03-08T21:31:08.463Z,21.23
2023-03-08T21:33:34.737Z,19.57
2023-03-08T21:36:01.011Z,19.53
2023-03-08T21:38:28.104Z,19.70
2023-03-08T21:40:54.262Z,19.63
2023-03-08T21:43:20.577Z,19.37
2023-03-08T21:45:47.103Z,20.03
2023-03-08T21:48:14.142Z,19.77
2023-03-08T21:50:41.188Z,22.17
2023-03-08T21:53:07.790Z,22.13
2023-03-08T21:55:38.428Z,21.73
2023-03-08T21:58:04.741Z,20.60
2023-03-08T22:00:31.391Z,22.33
2023-03-08T22:02:57.764Z,20.40
2023-03-08T22:05:24.098Z,20.87
2023-03-08T22:07:50.322Z,21.53
2023-03-08T22:10:17.616Z,21.50
2023-03-08T22:12:46.519Z,23.67
2023-03-08T22:15:14.845Z,22.83
2023-03-08T22:17:41.167Z,22.73
2023-03-08T22:20:09.917Z,22.40
2023-03-08T22:22:36.349Z,21.70
2023-03-08T22:25:02.547Z,20.97
2023-03-08T22:27:28.758Z,20.73
2023-03-08T22:29:55.768Z,21.87
2023-03-08T22:32:22.142Z,21.43
2023-03-08T22:34:48.485Z,22.67
2023-03-08T22:37:14.814Z,22.27
2023-03-08T22:39:41.323Z,23.43
2023-03-08T22:42:07.691Z,23.53
2023-03-08T22:44:34.020Z,24.07
2023-03-08T22:47:00.990Z,22.93
2023-03-08T22:49:27.280Z,22.90
2023-03-08T22:51:53.425Z,21.63
2023-03-08T22:54:21.496Z,20.70
2023-03-08T22:56:49.758Z,21.53
2023-03-08T22:59:16.200Z,22.00
2023-03-08T23:01:42.441Z,21.83
2023-03-08T23:04:10.718Z,21.47
2023-03-08T23:06:36.921Z,20.23
2023-03-08T23:09:05.488Z,20.90
2023-03-08T23:11:31.993Z,22.40
2023-03-08T23:13:58.222Z,21.13
2023-03-08T23:16:24.987Z,21.57
2023-03-08T23:18:52.811Z,20.43
2023-03-08T23:21:21.982Z,21.63
2023-03-08T23:23:48.309Z,21.00
2023-03-08T23:26:16.864Z,22.57
2023-03-08T23:28:43.325Z,21.23
2023-03-08T23:31:11.071Z,20.67
2023-03-08T23:33:37.695Z,21.40
2023-03-08T23:36:04.548Z,22.30
2023-03-08T23:38:31.426Z,22.70
2023-03-08T23:40:58.233Z,23.47
2023-03-08T23:43:24.657Z,23.17
2023-03-08T23:45:51.131Z,23.50
2023-03-08T23:48:17.340Z,21.80
2023-03-08T23:50:43.590Z,22.13
2023-03-08T23:53:09.773Z,22.63
2023-03-08T23:55:37.500Z,22.83
2023-03-08T23:58:03.678Z,22.30
